createdAt,value
2022-09-14T00:02:08.453Z,4.57
2022-09-14T00:07:10.383Z,5.35
2022-09-14T00:12:11.962Z,4.97
2022-09-14T00:17:13.806Z,6.38
2022-09-14T00:22:15.378Z,6.55
2022-09-14T00:27:17.144Z,5.90
2022-09-14T00:32:19.057Z,6.03
2022-09-14T00:37:20.699Z,6.10
2022-09-14T00:42:22.245Z,6.00
2022-09-14T00:47:24.217Z,5.78
2022-09-14T00:52:30.297Z,6.05
2022-09-14T00:57:40.526Z,5.47
2022-09-14T01:02:42.382Z,5.57
2022-09-14T01:07:58.434Z,5.38
2022-09-14T01:13:29.446Z,6.57
2022-09-14T01:18:56.611Z,5.97
2022-09-14T01:24:21.903Z,6.75
2022-09-14T01:29:50.022Z,5.97
2022-09-14T01:35:15.233Z,6.47
2022-09-14T01:40:43.495Z,6.65
2022-09-14T01:45:52.814Z,6.75
2022-09-14T01:50:58.371Z,6.13
2022-09-14T01:56:20.389Z,5.05
2022-09-14T02:01:28.025Z,5.68
2022-09-14T02:06:40.600Z,5.95
2022-09-14T02:11:42.458Z,6.18
2022-09-14T02:16:46.260Z,6.10
2022-09-14T02:21:48.076Z,6.72
2022-09-14T02:26:52.059Z,6.32
2022-09-14T02:31:59.346Z,6.70
2022-09-14T02:37:12.234Z,6.30
2022-09-14T02:42:13.726Z,6.15
2022-09-14T02:47:18.234Z,6.65
2022-09-14T02:52:24.500Z,5.75
2022-09-14T02:57:26.156Z,4.80
2022-09-14T03:02:27.698Z,5.05
2022-09-14T03:07:29.271Z,6.20
2022-09-14T03:12:30.876Z,6.72
2022-09-14T03:17:32.740Z,5.68
2022-09-14T03:22:34.468Z,5.13
2022-09-14T03:27:36.049Z,5.05
2022-09-14T03:32:38.283Z,5.28
2022-09-14T03:37:41.811Z,5.18
2022-09-14T03:42:48.468Z,6.20
2022-09-14T03:52:51.770Z,5.43
2022-09-14T03:57:54.694Z,5.63
2022-09-14T04:02:56.498Z,5.45
2022-09-14T04:07:58.124Z,5.40
2022-09-14T04:13:00.112Z,5.90
2022-09-14T04:18:01.645Z,5.90
2022-09-14T04:23:03.228Z,5.15
2022-09-14T04:28:19.629Z,5.10
2022-09-14T04:33:21.993Z,5.30
2022-09-14T04:38:23.953Z,5.30
2022-09-14T04:43:26.933Z,5.50
2022-09-14T04:48:29.245Z,5.45
2022-09-14T04:53:33.641Z,5.93
2022-09-14T04:58:39.460Z,5.35
2022-09-14T05:03:41.899Z,5.67
2022-09-14T05:08:44.237Z,6.43
2022-09-14T05:13:49.712Z,6.38
2022-09-14T05:18:54.667Z,5.43
2022-09-14T05:23:58.559Z,4.80
2022-09-14T05:29:01.864Z,5.30
2022-09-14T05:34:03.481Z,5.30
2022-09-14T05:39:06.162Z,5.25
2022-09-14T05:44:07.820Z,5.55
2022-09-14T05:49:09.444Z,6.47
2022-09-14T05:54:12.172Z,6.43
2022-09-14T05:59:13.904Z,5.72
2022-09-14T06:04:15.597Z,6.32
2022-09-14T06:09:17.181Z,5.82
2022-09-14T06:14:20.805Z,6.65
2022-09-14T06:19:22.333Z,6.28
2022-09-14T06:24:23.846Z,5.60
2022-09-14T06:29:26.145Z,6.57
2022-09-14T06:34:27.921Z,7.05
2022-09-14T06:39:29.619Z,6.32
2022-09-14T06:44:32.618Z,6.75
2022-09-14T06:49:34.370Z,7.00
2022-09-14T06:54:35.978Z,6.00
2022-09-14T06:59:37.507Z,7.60
2022-09-14T07:04:39.194Z,5.80
2022-09-14T07:09:41.029Z,7.07
2022-09-14T07:14:42.566Z,6.50
2022-09-14T07:19:44.085Z,7.78
2022-09-14T07:24:45.611Z,7.20
2022-09-14T07:29:47.452Z,6.90
2022-09-14T07:34:49.162Z,8.48
2022-09-14T07:39:50.903Z,9.07
2022-09-14T07:44:52.609Z,9.45
2022-09-14T07:49:54.233Z,8.95
2022-09-14T07:54:56.153Z,8.70
2022-09-14T07:59:58.498Z,8.45
2022-09-14T08:05:00.099Z,9.13
2022-09-14T08:10:02.164Z,10.55
2022-09-14T08:15:04.936Z,11.25
2022-09-14T08:20:07.164Z,12.30
2022-09-14T08:25:09.338Z,12.75
2022-09-14T08:30:13.386Z,11.13
2022-09-14T08:35:14.915Z,12.75
2022-09-14T08:40:18.111Z,13.20
2022-09-14T08:45:19.747Z,12.60
2022-09-14T08:50:22.066Z,13.00
2022-09-14T08:55:23.524Z,14.60
2022-09-14T09:00:34.660Z,14.43
2022-09-14T09:05:46.956Z,14.43
2022-09-14T09:10:52.265Z,15.00
2022-09-14T09:15:58.101Z,12.00
2022-09-14T09:21:05.829Z,16.08
2022-09-14T09:26:16.819Z,14.05
2022-09-14T09:31:23.140Z,14.77
2022-09-14T09:36:46.861Z,16.02
2022-09-14T09:41:56.416Z,14.98
2022-09-14T09:47:01.024Z,13.55
2022-09-14T09:52:09.761Z,15.15
2022-09-14T09:57:23.740Z,15.98
2022-09-14T10:02:31.236Z,15.40
2022-09-14T10:07:39.800Z,17.10
2022-09-14T10:12:47.939Z,14.73
2022-09-14T10:17:57.006Z,15.65
2022-09-14T10:23:18.610Z,17.73
2022-09-14T10:28:32.682Z,17.15
2022-09-14T10:33:35.316Z,18.13
2022-09-14T10:38:45.916Z,18.58
2022-09-14T10:44:02.706Z,18.65
2022-09-14T10:49:18.341Z,18.95
2022-09-14T10:54:32.580Z,20.10
2022-09-14T11:00:00.237Z,19.75
2022-09-14T11:05:40.417Z,20.45
2022-09-14T11:10:47.068Z,20.45
2022-09-14T11:16:10.349Z,16.90
2022-09-14T11:21:38.038Z,19.83
2022-09-14T11:27:04.728Z,20.33
2022-09-14T11:32:27.503Z,13.98
2022-09-14T11:37:50.072Z,17.55
2022-09-14T11:43:09.228Z,15.57
2022-09-14T11:48:42.312Z,15.85
2022-09-14T11:53:46.268Z,17.70
2022-09-14T11:58:47.970Z,15.70
2022-09-14T12:03:54.496Z,18.55
2022-09-14T12:09:16.544Z,18.17
2022-09-14T12:14:29.753Z,20.65
2022-09-14T12:19:32.131Z,18.08
2022-09-14T12:24:39.833Z,17.38
2022-09-14T12:29:41.483Z,18.88
2022-09-14T12:34:43.097Z,17.88
2022-09-14T12:40:31.406Z,20.00
2022-09-14T12:45:51.698Z,19.10
2022-09-14T12:50:54.749Z,19.17
2022-09-14T12:56:06.993Z,19.35
2022-09-14T13:01:14.825Z,21.75
2022-09-14T13:06:18.096Z,21.77
2022-09-14T13:11:38.810Z,21.17
2022-09-14T13:16:44.874Z,21.63
2022-09-14T13:21:49.779Z,20.20
2022-09-14T13:26:52.259Z,20.33
2022-09-14T13:31:59.701Z,22.63
2022-09-14T13:37:06.300Z,21.17
2022-09-14T13:42:09.387Z,22.90
2022-09-14T13:47:17.158Z,22.77
2022-09-14T13:52:38.561Z,21.90
2022-09-14T13:58:07.627Z,23.65
2022-09-14T14:03:24.520Z,19.88
2022-09-14T14:08:44.119Z,20.80
2022-09-14T14:13:45.724Z,17.48
2022-09-14T14:18:58.155Z,16.98
2022-09-14T14:24:28.105Z,15.00
2022-09-14T14:29:29.651Z,15.82
2022-09-14T14:34:31.822Z,17.25
2022-09-14T14:39:33.408Z,16.42
2022-09-14T14:44:35.058Z,15.93
2022-09-14T14:49:36.938Z,13.93
2022-09-14T14:54:40.994Z,14.07
2022-09-14T14:59:42.674Z,13.70
2022-09-14T15:04:44.252Z,13.73
2022-09-14T15:09:45.826Z,12.20
2022-09-14T15:14:47.355Z,16.25
2022-09-14T15:19:49.059Z,16.50
2022-09-14T15:24:50.603Z,16.40
2022-09-14T15:29:52.249Z,14.77
2022-09-14T15:34:53.933Z,15.07
2022-09-14T15:39:55.569Z,13.57
2022-09-14T15:44:57.212Z,12.93
2022-09-14T15:49:59.867Z,12.52
2022-09-14T15:55:01.541Z,13.18
2022-09-14T16:00:08.029Z,13.65
2022-09-14T16:05:16.182Z,15.05
2022-09-14T16:10:17.849Z,13.82
2022-09-14T16:15:19.554Z,15.80
2022-09-14T16:20:21.537Z,17.25
2022-09-14T16:25:23.105Z,14.52
2022-09-14T16:30:24.647Z,16.25
2022-09-14T16:35:26.266Z,17.27
2022-09-14T16:40:27.966Z,17.65
2022-09-14T16:45:29.778Z,16.50
2022-09-14T16:50:31.338Z,16.60
2022-09-14T16:55:32.912Z,15.55
2022-09-14T17:00:35.415Z,14.02
2022-09-14T17:05:37.024Z,13.30
2022-09-14T17:10:38.585Z,15.75
2022-09-14T17:15:40.106Z,14.07
2022-09-14T17:20:54.258Z,16.35
2022-09-14T17:25:56.452Z,13.07
2022-09-14T17:30:59.871Z,13.63
2022-09-14T17:36:03.534Z,14.45
2022-09-14T17:41:17.587Z,14.77
2022-09-14T17:46:21.624Z,14.32
2022-09-14T17:51:25.332Z,13.10
2022-09-14T17:56:28.844Z,14.20
2022-09-14T18:01:31.022Z,14.65
2022-09-14T18:06:38.400Z,14.63
2022-09-14T18:11:40.645Z,13.02
2022-09-14T18:16:44.150Z,13.68
2022-09-14T18:21:50.208Z,12.75
2022-09-14T18:26:53.288Z,14.63
2022-09-14T18:31:54.933Z,15.10
2022-09-14T18:36:56.652Z,14.30
2022-09-14T18:41:58.959Z,14.13
2022-09-14T18:47:00.791Z,13.25
2022-09-14T18:52:03.002Z,11.65
2022-09-14T18:57:04.719Z,12.15
2022-09-14T19:02:06.419Z,11.98
2022-09-14T19:07:08.574Z,10.73
2022-09-14T19:17:34.291Z,8.35
2022-09-14T19:22:35.928Z,9.40
2022-09-14T19:27:37.584Z,8.73
2022-09-14T19:32:39.240Z,10.20
2022-09-14T19:37:40.811Z,9.48
2022-09-14T19:42:42.408Z,9.55
2022-09-14T19:47:44.170Z,9.13
2022-09-14T19:52:45.872Z,8.40
2022-09-14T19:57:48.289Z,9.25
2022-09-14T20:02:49.933Z,9.95
2022-09-14T20:07:51.549Z,9.27
2022-09-14T20:12:54.329Z,10.40
2022-09-14T20:17:56.189Z,10.32
2022-09-14T20:22:57.688Z,10.63
2022-09-14T20:27:59.268Z,12.43
2022-09-14T20:33:00.885Z,11.25
2022-09-14T20:38:02.399Z,10.35
2022-09-14T20:43:05.163Z,11.70
2022-09-14T20:48:06.737Z,9.35
2022-09-14T20:53:08.289Z,9.90
2022-09-14T20:58:09.991Z,9.90
2022-09-14T21:03:12.745Z,10.38
2022-09-14T21:08:14.372Z,9.27
2022-09-14T21:13:16.010Z,7.30
2022-09-14T21:18:20.736Z,5.93
2022-09-14T21:23:22.411Z,5.10
2022-09-14T21:28:24.285Z,5.30
2022-09-14T21:33:25.752Z,4.80
2022-09-14T21:38:27.251Z,3.72
2022-09-14T21:43:29.329Z,3.08
2022-09-14T21:48:31.083Z,2.42
2022-09-14T21:53:33.429Z,2.13
2022-09-14T21:58:34.936Z,1.98
2022-09-14T22:03:37.039Z,2.40
2022-09-14T22:08:39.243Z,2.80
2022-09-14T22:13:41.238Z,2.83
2022-09-14T22:18:48.977Z,3.22
2022-09-14T22:23:57.517Z,3.50
2022-09-14T22:28:59.641Z,4.05
2022-09-14T22:34:01.275Z,3.70
2022-09-14T22:39:04.665Z,4.57
2022-09-14T22:44:07.441Z,5.43
2022-09-14T22:49:09.769Z,4.93
2022-09-14T22:54:11.392Z,5.13
2022-09-14T22:59:13.051Z,4.65
2022-09-14T23:04:14.700Z,4.63
2022-09-14T23:09:18.869Z,4.57
2022-09-14T23:14:20.458Z,4.40
2022-09-14T23:19:22.104Z,4.80
2022-09-14T23:24:23.796Z,5.05
2022-09-14T23:29:25.542Z,5.70
2022-09-14T23:34:27.206Z,6.13
2022-09-14T23:39:29.101Z,7.13
2022-09-14T23:44:30.641Z,6.38
2022-09-14T23:49:32.167Z,7.22
2022-09-14T23:54:33.772Z,7.15
2022-09-14T23:59:35.443Z,6.10
